createdAt,value
2022-12-07T00:00:29.871Z,9.77
2022-12-07T00:03:31.751Z,10.10
2022-12-07T00:06:35.381Z,8.65
2022-12-07T00:09:37.189Z,10.03
2022-12-07T00:12:39.070Z,9.75
2022-12-07T00:15:40.944Z,7.40
2022-12-07T00:18:43.746Z,6.80
2022-12-07T00:21:45.644Z,6.32
2022-12-07T00:24:47.567Z,6.10
2022-12-07T00:27:49.392Z,5.78
2022-12-07T00:30:51.986Z,5.88
2022-12-07T00:33:54.157Z,6.65
2022-12-07T00:36:56.056Z,5.63
2022-12-07T00:39:58.016Z,5.17
2022-12-07T00:43:00.160Z,5.72
2022-12-07T00:46:02.183Z,5.43
2022-12-07T00:49:04.219Z,6.30
2022-12-07T00:52:06.133Z,6.38
2022-12-07T00:55:08.537Z,7.47
2022-12-07T00:58:10.520Z,8.30
2022-12-07T01:01:12.690Z,8.27
2022-12-07T01:04:14.827Z,7.68
2022-12-07T01:07:16.779Z,7.80
2022-12-07T01:10:18.919Z,8.47
2022-12-07T01:13:20.775Z,8.43
2022-12-07T01:16:24.700Z,8.18
2022-12-07T01:19:26.647Z,7.90
2022-12-07T01:22:28.556Z,9.50
2022-12-07T01:25:30.513Z,7.43
2022-12-07T01:28:32.556Z,8.43
2022-12-07T01:31:34.959Z,7.10
2022-12-07T01:34:36.824Z,6.50
2022-12-07T01:37:39.842Z,6.28
2022-12-07T01:40:41.749Z,6.57
2022-12-07T01:44:11.340Z,6.72
2022-12-07T01:47:13.255Z,6.90
2022-12-07T01:50:15.634Z,6.97
2022-12-07T01:53:18.825Z,6.93
2022-12-07T01:56:25.175Z,8.03
2022-12-07T01:59:27.684Z,8.40
2022-12-07T02:02:42.486Z,7.97
2022-12-07T02:05:50.125Z,7.53
2022-12-07T02:08:54.451Z,7.63
2022-12-07T02:11:56.948Z,8.27
2022-12-07T02:14:58.848Z,9.05
2022-12-07T02:18:10.768Z,9.50
2022-12-07T02:21:44.929Z,8.60
2022-12-07T02:25:09.584Z,9.60
2022-12-07T02:28:14.475Z,8.17
2022-12-07T02:31:21.738Z,9.65
2022-12-07T02:34:33.255Z,10.55
2022-12-07T02:37:58.189Z,9.75
2022-12-07T02:41:21.683Z,12.23
2022-12-07T02:44:27.372Z,11.33
2022-12-07T02:47:32.808Z,15.30
2022-12-07T02:50:34.722Z,11.75
2022-12-07T02:53:44.367Z,11.40
2022-12-07T02:57:04.676Z,12.60
2022-12-07T03:00:16.961Z,7.63
2022-12-07T03:03:19.556Z,8.73
2022-12-07T03:06:28.758Z,9.77
2022-12-07T03:09:38.937Z,9.02
2022-12-07T03:13:15.478Z,13.80
2022-12-07T03:16:26.383Z,9.40
2022-12-07T03:19:29.044Z,9.02
2022-12-07T03:22:35.228Z,9.27
2022-12-07T03:25:46.363Z,9.48
2022-12-07T03:28:53.690Z,9.27
2022-12-07T03:32:12.899Z,8.50
2022-12-07T03:35:32.904Z,7.80
2022-12-07T03:38:52.152Z,7.57
2022-12-07T03:41:55.409Z,7.30
2022-12-07T03:44:58.049Z,7.20
2022-12-07T03:48:23.526Z,8.10
2022-12-07T03:51:40.312Z,9.23
2022-12-07T03:54:44.143Z,8.70
2022-12-07T03:57:50.692Z,9.20
2022-12-07T04:00:53.072Z,8.60
2022-12-07T04:03:54.951Z,8.80
2022-12-07T04:06:56.771Z,10.52
2022-12-07T04:09:58.961Z,10.10
2022-12-07T04:13:00.977Z,10.75
2022-12-07T04:16:02.893Z,10.00
2022-12-07T04:19:05.084Z,9.97
2022-12-07T04:22:07.760Z,11.32
2022-12-07T04:25:09.870Z,11.00
2022-12-07T04:28:11.708Z,11.38
2022-12-07T04:31:13.592Z,10.00
2022-12-07T04:34:16.543Z,10.77
2022-12-07T04:37:18.528Z,10.90
2022-12-07T04:40:21.070Z,10.57
2022-12-07T04:43:22.924Z,9.60
2022-12-07T04:46:26.994Z,10.57
2022-12-07T04:49:29.201Z,9.80
2022-12-07T04:52:37.225Z,9.48
2022-12-07T04:55:39.116Z,10.38
2022-12-07T04:58:41.036Z,10.20
2022-12-07T05:01:43.325Z,11.65
2022-12-07T05:04:45.236Z,20.43
2022-12-07T05:07:47.158Z,23.27
2022-12-07T05:10:50.250Z,19.17
2022-12-07T05:13:52.103Z,17.38
2022-12-07T05:16:54.610Z,14.52
2022-12-07T05:19:56.525Z,13.77
2022-12-07T05:22:59.616Z,14.35
2022-12-07T05:26:01.491Z,13.52
2022-12-07T05:29:04.623Z,11.93
2022-12-07T05:32:06.638Z,14.32
2022-12-07T05:35:09.071Z,14.90
2022-12-07T05:38:10.870Z,13.63
2022-12-07T05:41:36.694Z,16.10
2022-12-07T05:44:42.779Z,15.98
2022-12-07T05:47:44.689Z,19.08
2022-12-07T05:50:49.689Z,19.17
2022-12-07T05:53:51.673Z,16.17
2022-12-07T05:56:53.577Z,14.82
2022-12-07T05:59:55.437Z,17.13
2022-12-07T06:02:57.519Z,18.05
2022-12-07T06:05:59.587Z,15.30
2022-12-07T06:09:01.498Z,15.52
2022-12-07T06:12:22.303Z,14.32
2022-12-07T06:15:24.217Z,14.95
2022-12-07T06:18:26.065Z,14.18
2022-12-07T06:21:28.044Z,13.53
2022-12-07T06:24:29.911Z,14.93
2022-12-07T06:27:33.735Z,13.52
2022-12-07T06:30:35.616Z,14.90
2022-12-07T06:33:37.625Z,14.00
2022-12-07T06:36:39.572Z,13.90
2022-12-07T06:39:41.463Z,14.93
2022-12-07T06:42:43.315Z,14.18
2022-12-07T07:37:56.964Z,16.08
2022-12-07T07:40:58.886Z,15.60
2022-12-07T07:44:00.833Z,16.25
2022-12-07T07:47:03.210Z,17.27
2022-12-07T07:50:06.000Z,17.95
2022-12-07T07:53:08.020Z,18.95
2022-12-07T07:56:09.945Z,17.65
2022-12-07T07:59:12.126Z,15.57
2022-12-07T08:02:18.956Z,14.77
2022-12-07T08:05:21.267Z,17.80
2022-12-07T08:08:23.455Z,15.55
2022-12-07T08:11:25.550Z,14.48
2022-12-07T08:14:28.584Z,14.50
2022-12-07T08:17:30.448Z,13.63
2022-12-07T08:20:33.868Z,13.60
2022-12-07T08:23:39.916Z,14.10
2022-12-07T08:26:42.719Z,13.90
2022-12-07T08:29:44.716Z,14.75
2022-12-07T08:32:47.479Z,13.90
2022-12-07T08:35:49.336Z,14.38
2022-12-07T08:39:29.365Z,16.55
2022-12-07T08:42:13.268Z,21.40
2022-12-07T08:45:17.424Z,19.50
2022-12-07T08:48:25.353Z,16.97
2022-12-07T08:51:27.669Z,15.73
2022-12-07T08:54:29.838Z,15.50
2022-12-07T08:57:35.081Z,17.60
2022-12-07T09:00:37.337Z,16.98
2022-12-07T09:03:39.570Z,16.30
2022-12-07T09:06:42.351Z,26.90
2022-12-07T09:09:44.528Z,18.13
2022-12-07T09:12:46.495Z,19.58
2022-12-07T09:15:48.549Z,19.30
2022-12-07T09:18:50.523Z,18.23
2022-12-07T09:21:53.932Z,18.30
2022-12-07T09:24:55.782Z,16.90
2022-12-07T09:27:58.722Z,17.25
2022-12-07T09:31:22.609Z,20.77
2022-12-07T09:34:22.847Z,17.20
2022-12-07T09:37:24.835Z,15.60
2022-12-07T09:40:26.697Z,16.42
2022-12-07T09:43:28.947Z,15.77
2022-12-07T09:46:36.406Z,15.88
2022-12-07T09:49:38.521Z,15.23
2022-12-07T09:52:42.195Z,17.70
2022-12-07T09:55:44.607Z,18.02
2022-12-07T09:58:47.417Z,17.30
2022-12-07T10:01:51.290Z,17.00
2022-12-07T10:04:53.364Z,18.23
2022-12-07T10:07:55.465Z,21.23
2022-12-07T10:10:58.517Z,22.48
2022-12-07T10:14:13.313Z,22.08
2022-12-07T10:17:41.086Z,22.25
2022-12-07T10:20:43.140Z,17.97
2022-12-07T10:24:03.850Z,15.13
2022-12-07T10:27:06.580Z,8.20
2022-12-07T10:30:15.028Z,6.07
2022-12-07T10:33:38.701Z,6.55
2022-12-07T10:36:40.652Z,7.07
2022-12-07T10:39:46.783Z,7.18
2022-12-07T10:43:02.398Z,7.90
2022-12-07T10:46:16.253Z,7.68
2022-12-07T10:49:39.000Z,6.90
2022-12-07T10:52:53.565Z,6.90
2022-12-07T10:56:16.359Z,6.50
2022-12-07T10:59:31.688Z,7.53
2022-12-07T11:02:50.447Z,7.18
2022-12-07T11:06:22.183Z,7.65
2022-12-07T11:10:08.558Z,8.03
2022-12-07T11:28:50.256Z,6.38
2022-12-07T11:31:57.494Z,4.17
2022-12-07T11:35:06.092Z,2.88
2022-12-07T11:38:28.172Z,3.20
2022-12-07T11:41:37.920Z,4.40
2022-12-07T11:45:15.998Z,3.47
2022-12-07T11:48:29.879Z,3.87
2022-12-07T11:51:36.604Z,3.40
2022-12-07T11:54:44.561Z,3.58
2022-12-07T11:57:54.237Z,3.38
2022-12-07T12:01:14.699Z,4.20
2022-12-07T12:04:46.540Z,4.20
2022-12-07T13:07:14.168Z,3.43
2022-12-07T13:10:25.491Z,3.80
2022-12-07T13:13:33.570Z,6.82
2022-12-07T13:16:40.918Z,3.25
2022-12-07T13:19:42.872Z,6.38
2022-12-07T13:22:49.836Z,5.17
2022-12-07T13:26:17.992Z,5.30
2022-12-07T13:29:21.692Z,3.03
2022-12-07T13:32:27.017Z,2.50
2022-12-07T13:35:38.795Z,2.60
2022-12-07T13:38:50.868Z,1.70
2022-12-07T13:41:58.172Z,1.83
2022-12-07T13:45:15.793Z,2.60
2022-12-07T13:48:49.557Z,1.65
2022-12-07T13:51:52.840Z,2.55
2022-12-07T13:54:59.126Z,1.70
2022-12-07T13:58:01.315Z,2.17
2022-12-07T14:01:03.528Z,3.53
2022-12-07T14:04:40.989Z,3.75
2022-12-07T14:07:57.261Z,5.55
2022-12-07T14:11:00.308Z,2.90
2022-12-07T14:14:04.560Z,3.60
2022-12-07T14:17:23.675Z,3.30
2022-12-07T14:20:37.751Z,3.75
2022-12-07T14:23:40.929Z,3.92
2022-12-07T14:26:46.043Z,3.27
2022-12-07T14:29:48.574Z,3.42
2022-12-07T14:32:55.662Z,3.70
2022-12-07T14:35:59.115Z,4.18
2022-12-07T14:39:01.493Z,5.63
2022-12-07T14:42:03.448Z,6.07
2022-12-07T14:45:07.048Z,5.88
2022-12-07T14:55:00.904Z,9.95
2022-12-07T14:58:03.778Z,12.40
2022-12-07T15:01:05.814Z,7.28
2022-12-07T16:03:15.742Z,7.22
2022-12-07T16:06:18.570Z,3.40
2022-12-07T16:09:20.599Z,5.38
2022-12-07T16:12:22.505Z,9.70
2022-12-07T16:15:25.574Z,5.78
2022-12-07T16:18:27.480Z,5.47
2022-12-07T16:21:29.549Z,5.68
2022-12-07T16:24:32.389Z,4.25
2022-12-07T16:27:35.317Z,4.50
2022-12-07T16:30:37.870Z,4.65
2022-12-07T16:33:41.569Z,4.85
2022-12-07T16:40:06.108Z,3.67
2022-12-07T16:43:08.395Z,3.63
2022-12-07T16:46:10.874Z,3.35
2022-12-07T16:49:14.869Z,3.90
2022-12-07T16:52:20.960Z,4.38
2022-12-07T16:55:23.204Z,5.00
2022-12-07T16:58:25.057Z,6.10
2022-12-07T17:01:29.203Z,9.60
2022-12-07T17:04:31.284Z,6.70
2022-12-07T17:07:33.215Z,8.77
2022-12-07T17:10:37.998Z,9.73
2022-12-07T17:13:58.562Z,16.50
2022-12-07T17:17:03.580Z,14.88
2022-12-07T17:20:06.158Z,10.75
2022-12-07T17:23:08.103Z,9.75
2022-12-07T17:26:24.429Z,24.42
2022-12-07T17:29:26.761Z,28.03
2022-12-07T17:32:28.829Z,26.33
2022-12-07T17:35:30.790Z,10.93
2022-12-07T17:38:32.740Z,9.40
2022-12-07T17:41:53.365Z,13.05
2022-12-07T17:44:55.283Z,9.23
2022-12-07T17:47:57.490Z,11.88
2022-12-07T17:51:21.465Z,8.45
2022-12-07T17:54:23.639Z,10.05
2022-12-07T17:57:25.589Z,11.80
2022-12-07T18:00:27.600Z,9.93
2022-12-07T19:57:36.057Z,11.90
2022-12-07T20:00:38.268Z,9.93
2022-12-07T20:03:40.817Z,9.07
2022-12-07T20:06:43.888Z,9.55
2022-12-07T20:09:46.320Z,11.10
2022-12-07T20:13:07.192Z,10.50
2022-12-07T20:16:19.251Z,15.07
2022-12-07T20:19:22.418Z,13.25
2022-12-07T20:22:24.655Z,11.30
2022-12-07T20:25:27.396Z,12.52
2022-12-07T20:28:29.975Z,12.27
2022-12-07T20:31:32.093Z,11.88
2022-12-07T20:34:34.037Z,13.60
2022-12-07T20:37:36.164Z,14.90
2022-12-07T20:40:46.079Z,11.60
2022-12-07T20:43:48.195Z,11.47
2022-12-07T20:46:50.456Z,10.13
2022-12-07T20:49:52.465Z,14.32
2022-12-07T20:53:00.218Z,11.90
2022-12-07T20:56:02.500Z,10.52
2022-12-07T20:59:07.192Z,14.70
2022-12-07T21:02:13.460Z,16.05
2022-12-07T21:05:15.539Z,16.25
2022-12-07T21:08:17.411Z,13.07
2022-12-07T21:11:20.862Z,13.93
2022-12-07T21:14:23.591Z,13.27
2022-12-07T21:17:26.350Z,13.98
2022-12-07T21:20:28.456Z,14.27
2022-12-07T21:23:30.321Z,13.25
2022-12-07T21:26:34.531Z,12.85
2022-12-07T21:29:43.587Z,11.53
2022-12-07T21:32:45.976Z,16.50
2022-12-07T21:35:47.869Z,14.20
2022-12-07T21:38:50.536Z,13.00
2022-12-07T21:41:52.402Z,11.82
2022-12-07T21:44:54.345Z,10.73
2022-12-07T21:47:56.210Z,10.88
2022-12-07T21:51:04.773Z,12.05
2022-12-07T21:54:07.428Z,13.93
